Time;durP1;ratioP1;P1;durP2;ratioP2;P2;SDS_P1;SDS_P2;PMS_P1;PMS_P2;Temp;Humidity;BMP_temperature;BMP_pressure;BME280_temperature;BME280_humidity;BME280_pressure;Samples;Min_cycle;Max_cycle;Signal;HPM_P1;HPM_P2
2024/01/31 00:00:13;;;;;;;5.20;3.10;;;;;;;-5.23;68.62;96449.28;5007919;28;20484;-73
2024/01/31 00:02:38;;;;;;;7.20;4.90;;;;;;;-5.32;68.12;96423.91;4996609;28;20025;-73
2024/01/31 00:05:04;;;;;;;6.35;3.80;;;;;;;-5.21;68.75;96451.81;5010899;28;20028;-73
2024/01/31 00:07:29;;;;;;;5.70;3.50;;;;;;;-5.45;68.67;96433.13;5028633;28;20113;-73
2024/01/31 00:09:55;;;;;;;4.18;2.45;;;;;;;-5.34;69.27;96445.03;4978132;28;20458;-73
2024/01/31 00:12:20;;;;;;;4.00;2.60;;;;;;;-5.45;69.23;96452.56;4995350;28;20046;-73
2024/01/31 00:14:45;;;;;;;4.22;2.85;;;;;;;-5.63;69.45;96427.97;5012764;28;20041;-72
2024/01/31 00:17:11;;;;;;;4.55;2.90;;;;;;;-5.53;68.83;96421.28;5009756;28;20033;-73
2024/01/31 00:19:36;;;;;;;5.20;3.08;;;;;;;-5.47;69.38;96452.53;4991047;28;20033;-73
2024/01/31 00:22:02;;;;;;;4.55;2.80;;;;;;;-5.36;68.63;96457.66;5006250;28;20053;-73
2024/01/31 00:24:27;;;;;;;4.57;2.88;;;;;;;-5.36;69.40;96446.69;5011854;28;20033;-73
2024/01/31 00:26:52;;;;;;;4.00;2.70;;;;;;;-5.39;68.71;96445.81;5027300;28;20484;-73
2024/01/31 00:29:18;;;;;;;4.72;2.70;;;;;;;-5.45;68.53;96423.00;5009880;28;20048;-73
2024/01/31 00:31:43;;;;;;;5.30;3.03;;;;;;;-5.31;68.85;96448.41;5012323;28;20283;-73
2024/01/31 00:34:09;;;;;;;4.18;2.67;;;;;;;-5.19;68.16;96445.91;5014411;28;20053;-73
2024/01/31 00:36:34;;;;;;;3.72;2.25;;;;;;;-5.22;67.48;96445.91;5031712;28;20029;-73
2024/01/31 00:39:00;;;;;;;4.47;2.92;;;;;;;-5.39;68.13;96448.34;5030966;28;20108;-73
2024/01/31 00:41:29;;;;;;;39.10;14.73;;;;;;;-5.29;68.40;96445.88;4998934;28;20462;-73
2024/01/31 00:43:55;;;;;;;27.10;10.70;;;;;;;-5.44;68.70;96424.69;5015075;28;20040;-73
2024/01/31 00:46:21;;;;;;;13.40;5.88;;;;;;;-5.50;68.54;96444.09;5014318;28;20038;-73
2024/01/31 00:48:46;;;;;;;12.60;5.80;;;;;;;-5.35;68.46;96448.38;5009481;28;20038;-73
2024/01/31 00:51:12;;;;;;;7.47;3.28;;;;;;;-5.53;68.43;96428.88;5032130;28;20040;-73
2024/01/31 00:53:40;;;;;;;4.63;2.33;;;;;;;-5.34;67.91;96445.03;4995529;28;20418;-73
2024/01/31 00:56:06;;;;;;;4.57;2.40;;;;;;;-5.54;68.49;96428.03;5023447;28;20021;-73
2024/01/31 00:58:33;;;;;;;8.23;5.00;;;;;;;-5.49;68.22;96444.09;4997834;28;20063;-72
2024/01/31 01:00:58;;;;;;;7.38;4.38;;;;;;;-5.53;68.79;96449.13;4996138;28;20068;-73
2024/01/31 01:03:23;;;;;;;9.23;6.15;;;;;;;-5.48;69.14;96438.19;4999860;28;20037;-73
2024/01/31 01:05:49;;;;;;;12.13;7.85;;;;;;;-5.69;69.42;96445.66;5017933;28;20029;-73
2024/01/31 01:08:14;;;;;;;8.23;5.40;;;;;;;-5.79;69.64;96436.28;5012771;28;20064;-73
2024/01/31 01:10:40;;;;;;;9.23;5.35;;;;;;;-5.76;69.13;96416.09;5030293;28;20026;-73
2024/01/31 01:13:05;;;;;;;5.70;3.30;;;;;;;-6.04;70.20;96410.00;5014378;28;20033;-73
2024/01/31 01:15:30;;;;;;;5.60;2.88;;;;;;;-5.93;70.13;96434.53;5015283;28;20395;-73
2024/01/31 01:17:56;;;;;;;3.75;2.30;;;;;;;-5.90;69.99;96421.91;5032900;28;20053;-73
2024/01/31 01:20:21;;;;;;;3.35;2.30;;;;;;;-5.69;69.27;96436.38;5011695;28;20397;-73
2024/01/31 01:22:47;;;;;;;6.40;3.40;;;;;;;-5.79;69.24;96421.09;4982523;28;20091;-73
2024/01/31 01:25:12;;;;;;;4.57;2.50;;;;;;;-5.79;69.07;96426.16;5031882;28;20018;-73
2024/01/31 01:27:38;;;;;;;4.18;2.80;;;;;;;-5.97;69.34;96424.41;5014948;28;20036;-73
2024/01/31 01:30:04;;;;;;;4.35;2.80;;;;;;;-6.08;69.67;96411.66;4992348;28;20879;-73
2024/01/31 01:32:29;;;;;;;6.00;4.03;;;;;;;-6.12;69.73;96413.34;5014984;28;20471;-73
2024/01/31 01:34:54;;;;;;;12.80;8.40;;;;;;;-6.08;70.76;96426.84;5022606;28;20058;-72
2024/01/31 01:37:20;;;;;;;12.65;7.25;;;;;;;-5.97;71.00;96425.25;5031306;28;20036;-73
2024/01/31 01:39:45;;;;;;;9.57;7.18;;;;;;;-6.16;71.64;96406.53;4995706;28;20079;-73
2024/01/31 01:42:11;;;;;;;14.68;7.63;;;;;;;-5.98;71.51;96425.25;5031126;28;20042;-73
2024/01/31 01:44:42;;;;;;;10.60;7.20;;;;;;;-5.88;71.15;96420.22;5013187;28;20071;-72
2024/01/31 01:47:08;;;;;;;11.93;7.15;;;;;;;-5.74;70.56;96414.38;4980580;28;20079;-73
2024/01/31 01:49:33;;;;;;;8.82;5.70;;;;;;;-5.89;70.01;96405.88;4993272;28;20458;-73
2024/01/31 01:51:58;;;;;;;8.80;4.97;;;;;;;-5.81;69.73;96412.69;4994845;28;20637;-73
2024/01/31 01:54:24;;;;;;;6.50;4.07;;;;;;;-5.88;69.80;96405.03;5012351;28;20029;-73
2024/01/31 01:56:49;;;;;;;5.55;3.40;;;;;;;-5.89;69.72;96416.00;5006425;28;20037;-73
2024/01/31 01:59:15;;;;;;;5.50;3.60;;;;;;;-6.08;69.41;96404.06;4992401;28;20036;-73
2024/01/31 02:01:41;;;;;;;5.85;3.40;;;;;;;-6.11;69.68;96417.56;5014417;28;20048;-73
2024/01/31 02:04:08;;;;;;;5.78;2.92;;;;;;;-6.33;69.78;96406.41;5013416;28;20160;-72
2024/01/31 02:06:33;;;;;;;7.43;2.88;;;;;;;-6.36;70.09;96401.34;4993901;28;20202;-73
2024/01/31 02:08:59;;;;;;;5.03;3.03;;;;;;;-6.56;69.50;96392.75;5011841;28;20029;-73
2024/01/31 02:11:24;;;;;;;4.55;3.22;;;;;;;-6.75;70.40;96400.16;4993625;28;20044;-73
2024/01/31 02:13:50;;;;;;;4.30;2.83;;;;;;;-6.81;70.03;96395.03;5010619;28;20017;-73
2024/01/31 02:16:15;;;;;;;4.72;3.00;;;;;;;-6.73;70.85;96409.44;5003957;28;20435;-73
2024/01/31 02:18:41;;;;;;;7.07;3.72;;;;;;;-6.82;71.03;96392.53;5030572;28;20046;-73
2024/01/31 02:21:06;;;;;;;9.00;5.93;;;;;;;-6.75;71.63;96400.16;5024465;28;20030;-73
2024/01/31 02:23:31;;;;;;;10.80;6.53;;;;;;;-6.85;71.87;96397.50;4999609;28;20076;-73
2024/01/31 02:25:57;;;;;;;15.02;8.10;;;;;;;-6.80;72.44;96401.81;5014747;28;20029;-73
2024/01/31 02:28:22;;;;;;;16.38;7.93;;;;;;;-6.73;71.20;96387.53;5014537;28;20396;-73
2024/01/31 02:30:48;;;;;;;24.67;12.00;;;;;;;-6.86;70.91;96380.66;5014211;28;20095;-73
2024/01/31 02:33:13;;;;;;;27.95;13.70;;;;;;;-6.95;71.55;96404.16;5013218;28;20485;-73
2024/01/31 02:35:39;;;;;;;16.95;9.60;;;;;;;-7.00;72.30;96394.00;4995819;28;20113;-73
2024/01/31 02:38:04;;;;;;;19.50;8.93;;;;;;;-6.76;72.04;96402.69;4992650;28;20026;-73
2024/01/31 02:40:29;;;;;;;17.67;8.98;;;;;;;-6.75;71.92;96400.16;4974890;28;20030;-73
2024/01/31 02:42:56;;;;;;;18.52;9.25;;;;;;;-6.80;71.88;96384.13;4975846;28;20047;-73
2024/01/31 02:45:22;;;;;;;19.52;10.32;;;;;;;-6.86;71.54;96370.56;4971624;28;20042;-73
2024/01/31 02:47:47;;;;;;;14.18;8.93;;;;;;;-6.90;71.24;96368.84;4975211;28;20039;-73
2024/01/31 02:50:12;;;;;;;16.20;9.25;;;;;;;-6.87;71.62;96392.47;4989899;28;20054;-73
2024/01/31 02:52:38;;;;;;;12.00;7.40;;;;;;;-6.94;71.73;96387.31;4975044;28;20026;-73
2024/01/31 02:55:04;;;;;;;11.38;6.10;;;;;;;-7.33;71.92;96381.00;4988955;28;20026;-73
2024/01/31 02:57:29;;;;;;;9.13;6.25;;;;;;;-7.43;72.81;96390.16;4991171;28;20041;-73
2024/01/31 02:59:55;;;;;;;8.65;5.38;;;;;;;-7.36;73.41;96391.91;4990624;28;20038;-73
2024/01/31 03:02:20;;;;;;;7.13;4.22;;;;;;;-7.55;73.55;96397.56;4977650;28;20038;-73
2024/01/31 03:04:45;;;;;;;7.57;4.25;;;;;;;-7.62;73.80;96365.53;4972931;28;20030;-73
2024/01/31 03:07:11;;;;;;;6.93;3.97;;;;;;;-7.27;73.34;96394.56;4971682;28;20034;-73
2024/01/31 03:09:37;;;;;;;5.18;2.60;;;;;;;-7.20;72.78;96395.47;4955468;28;20034;-72
2024/01/31 03:12:06;;;;;;;5.07;3.45;;;;;;;-7.19;72.46;96397.16;4972809;28;20126;-72
2024/01/31 03:14:32;;;;;;;4.72;3.05;;;;;;;-7.27;72.64;96389.53;4972352;28;20059;-72
2024/01/31 03:16:58;;;;;;;7.68;4.43;;;;;;;-7.32;72.78;96398.72;4966658;28;20440;-73
2024/01/31 03:19:24;;;;;;;7.55;4.53;;;;;;;-7.31;73.25;96395.34;4987166;28;20030;-72
2024/01/31 03:21:50;;;;;;;7.05;4.68;;;;;;;-7.40;73.62;96377.56;4974353;28;20038;-72
2024/01/31 03:24:15;;;;;;;7.88;4.95;;;;;;;-7.45;74.46;96385.09;4974396;28;20049;-72
2024/01/31 03:26:41;;;;;;;5.95;4.10;;;;;;;-7.38;74.19;96372.53;4990499;28;20136;-72
2024/01/31 03:29:06;;;;;;;7.10;4.95;;;;;;;-7.42;73.54;96374.19;4974375;28;20030;-72
2024/01/31 03:31:32;;;;;;;7.85;5.03;;;;;;;-7.54;74.31;96367.31;4974498;28;20480;-72
2024/01/31 03:33:57;;;;;;;10.13;5.32;;;;;;;-7.56;74.23;96374.00;4985798;28;20039;-72
2024/01/31 03:36:23;;;;;;;4.65;2.90;;;;;;;-7.59;74.18;96368.09;5018367;28;20030;-72
2024/01/31 03:38:48;;;;;;;6.68;3.22;;;;;;;-7.60;74.24;96369.78;5013310;28;20109;-72
2024/01/31 03:41:13;;;;;;;3.97;2.67;;;;;;;-7.39;73.48;96379.25;5020395;28;20038;-71
2024/01/31 03:43:39;;;;;;;5.18;2.67;;;;;;;-7.33;72.65;96359.13;5011357;28;20041;-72
2024/01/31 03:46:05;;;;;;;9.32;4.97;;;;;;;-7.17;73.75;96364.34;4993779;28;20045;-72
2024/01/31 03:48:31;;;;;;;10.60;5.13;;;;;;;-7.23;73.97;96370.19;4977650;28;20026;-72
2024/01/31 03:50:58;;;;;;;10.75;5.57;;;;;;;-7.13;74.33;96379.56;4994823;28;20088;-72
2024/01/31 03:53:24;;;;;;;10.82;5.32;;;;;;;-7.28;74.43;96380.22;5011052;28;20124;-71
2024/01/31 03:55:50;;;;;;;6.70;4.40;;;;;;;-7.16;74.54;96388.78;5008843;28;20056;-72
2024/01/31 03:58:15;;;;;;;6.18;4.35;;;;;;;-7.26;74.52;96396.25;4993463;28;20440;-71
2024/01/31 04:00:42;;;;;;;8.60;4.82;;;;;;;-7.28;73.53;96386.97;5011582;28;20088;-71
2024/01/31 04:03:07;;;;;;;7.72;4.35;;;;;;;-7.25;74.17;96371.84;4978433;28;20034;-72
2024/01/31 04:05:33;;;;;;;9.55;5.13;;;;;;;-7.33;74.33;96369.22;4977240;28;20026;-71
2024/01/31 04:07:58;;;;;;;6.05;4.05;;;;;;;-7.24;73.13;96388.72;4995772;28;20033;-71
2024/01/31 04:10:24;;;;;;;3.42;2.42;;;;;;;-7.22;72.09;96371.88;5015343;28;20030;-71
2024/01/31 04:12:49;;;;;;;10.00;5.53;;;;;;;-7.14;73.42;96390.50;5023363;28;20034;-71
2024/01/31 04:15:15;;;;;;;9.10;5.88;;;;;;;-7.06;73.93;96377.94;5016640;28;20018;-71
2024/01/31 04:17:40;;;;;;;5.43;3.28;;;;;;;-7.15;73.38;96350.91;5000730;28;20029;-72
2024/01/31 04:20:06;;;;;;;6.22;3.30;;;;;;;-7.01;73.01;96389.78;5014956;28;20092;-71
2024/01/31 04:22:32;;;;;;;5.85;3.83;;;;;;;-6.94;73.18;96388.16;5032884;28;20041;-72
2024/01/31 04:24:57;;;;;;;6.40;4.07;;;;;;;-7.00;73.11;96390.63;5034803;28;20025;-72
2024/01/31 04:27:23;;;;;;;6.05;3.50;;;;;;;-6.82;72.29;96398.41;5016853;28;20099;-71
2024/01/31 04:29:48;;;;;;;7.20;4.18;;;;;;;-6.92;72.23;96378.94;5015388;28;20037;-71
2024/01/31 04:32:13;;;;;;;7.13;3.80;;;;;;;-6.77;70.75;96391.72;4999825;28;20496;-71
2024/01/31 04:34:39;;;;;;;6.97;4.75;;;;;;;-6.84;70.85;96392.50;5000025;28;20404;-71
2024/01/31 04:37:04;;;;;;;7.03;3.75;;;;;;;-6.81;71.05;96405.16;5034441;28;20109;-71
2024/01/31 04:39:30;;;;;;;5.57;3.00;;;;;;;-6.83;70.31;96389.13;5015913;28;20030;-71
2024/01/31 04:41:55;;;;;;;8.18;4.30;;;;;;;-6.93;70.92;96404.19;5000091;28;20041;-71
2024/01/31 04:44:21;;;;;;;7.03;3.78;;;;;;;-6.95;71.00;96398.28;5016279;28;20033;-71
2024/01/31 04:46:47;;;;;;;7.90;3.90;;;;;;;-6.86;70.95;96404.25;5023582;28;20034;-71
2024/01/31 04:49:12;;;;;;;8.60;5.10;;;;;;;-7.01;70.65;96397.38;5018365;28;20419;-71
2024/01/31 04:51:41;;;;;;;8.10;4.95;;;;;;;-6.99;70.64;96405.81;5005189;28;20041;-71
2024/01/31 04:54:06;;;;;;;9.80;5.43;;;;;;;-7.28;71.37;96408.00;4996642;28;20404;-71
2024/01/31 04:56:32;;;;;;;8.38;4.97;;;;;;;-7.34;71.69;96414.69;4998325;28;20052;-72
2024/01/31 04:58:57;;;;;;;8.57;4.53;;;;;;;-7.30;71.13;96392.03;5011966;28;20033;-71
2024/01/31 05:01:23;;;;;;;8.60;5.22;;;;;;;-7.26;71.38;96395.41;5014434;28;20034;-71
2024/01/31 05:03:48;;;;;;;8.68;5.18;;;;;;;-7.42;72.05;96391.84;5014011;28;20096;-71
2024/01/31 05:06:13;;;;;;;12.32;6.65;;;;;;;-7.48;72.21;96369.91;4981274;28;20617;-71
2024/01/31 05:08:39;;;;;;;10.77;6.85;;;;;;;-7.60;73.39;96395.00;5015627;28;20026;-71
2024/01/31 05:11:04;;;;;;;9.65;4.72;;;;;;;-7.59;74.04;96386.59;5013963;28;20049;-71
2024/01/31 05:13:30;;;;;;;9.43;5.50;;;;;;;-7.65;73.80;96377.28;5013940;28;20022;-71
2024/01/31 05:15:55;;;;;;;4.88;3.38;;;;;;;-7.50;73.80;96383.34;4997967;28;20069;-71
2024/01/31 05:18:20;;;;;;;5.50;3.42;;;;;;;-7.49;73.78;96380.00;4996090;28;20093;-71
2024/01/31 05:20:46;;;;;;;7.93;3.85;;;;;;;-7.45;73.61;96376.66;5018722;28;20026;-71
2024/01/31 05:23:11;;;;;;;6.20;3.85;;;;;;;-7.43;73.12;96364.91;4992034;28;20046;-75
2024/01/31 05:25:38;;;;;;;6.03;3.53;;;;;;;-7.28;73.39;96385.28;4981059;28;20022;-71
2024/01/31 05:28:03;;;;;;;34.05;12.73;;;;;;;-7.20;73.30;96386.22;4999531;28;20033;-72
2024/01/31 05:30:29;;;;;;;77.13;26.95;;;;;;;-7.08;74.04;96390.53;4985239;28;20026;-72
2024/01/31 05:32:54;;;;;;;38.97;15.55;;;;;;;-7.18;74.48;96392.97;5009111;28;20037;-69
2024/01/31 05:35:20;;;;;;;22.92;10.85;;;;;;;-7.02;74.20;96399.88;5028334;28;20447;-70
2024/01/31 05:37:46;;;;;;;20.35;11.27;;;;;;;-7.01;74.49;96401.59;4990526;28;20045;-70
2024/01/31 05:40:30;;;;;;;23.25;11.30;;;;;;;-6.98;74.33;96401.63;5020415;28;20430;-73
2024/01/31 05:42:56;;;;;;;19.80;11.32;;;;;;;-7.07;74.58;96417.53;5001364;28;20046;-70
2024/01/31 05:45:21;;;;;;;17.10;10.23;;;;;;;-7.11;73.96;96390.53;5011062;28;20033;-71
2024/01/31 05:47:47;;;;;;;18.40;10.43;;;;;;;-7.09;74.45;96403.19;4993368;28;20026;-72
2024/01/31 05:50:12;;;;;;;16.27;9.30;;;;;;;-6.98;74.18;96396.56;4988464;28;20037;-71
2024/01/31 05:52:37;;;;;;;13.75;8.93;;;;;;;-6.81;73.31;96409.38;5011471;28;20049;-71
2024/01/31 05:55:03;;;;;;;11.32;8.00;;;;;;;-6.86;72.44;96424.47;5010074;28;20037;-71
2024/01/31 05:57:29;;;;;;;13.55;8.85;;;;;;;-7.03;72.28;96411.66;5011654;28;20026;-72
2024/01/31 05:59:54;;;;;;;13.77;8.50;;;;;;;-7.02;72.54;96423.47;5013825;28;20041;-71
2024/01/31 06:02:19;;;;;;;11.93;8.13;;;;;;;-7.22;71.80;96395.44;5026334;28;20025;-72
2024/01/31 06:04:45;;;;;;;13.05;8.07;;;;;;;-7.38;72.47;96408.75;5030391;28;20033;-71
2024/01/31 06:07:12;;;;;;;8.68;5.50;;;;;;;-7.45;72.25;96434.75;4995944;28;20462;-71
2024/01/31 06:09:38;;;;;;;14.88;8.05;;;;;;;-7.68;72.49;96409.22;5024549;28;20539;-72
2024/01/31 06:12:04;;;;;;;12.77;6.80;;;;;;;-7.57;73.68;96424.50;5030877;28;20041;-72
2024/01/31 06:14:31;;;;;;;10.48;6.38;;;;;;;-7.53;73.71;96439.69;4993594;28;20076;-71
2024/01/31 06:16:56;;;;;;;18.88;10.35;;;;;;;-7.49;73.11;96430.50;5028935;28;20085;-71
2024/01/31 06:19:22;;;;;;;16.45;10.63;;;;;;;-7.54;72.92;96432.09;5010099;28;20048;-72
2024/01/31 06:21:47;;;;;;;20.88;11.27;;;;;;;-7.36;72.73;96439.06;5026724;28;20026;-70
2024/01/31 06:24:13;;;;;;;24.10;11.93;;;;;;;-7.68;73.09;96424.34;5010868;28;20030;-72
2024/01/31 06:26:41;;;;;;;30.25;16.13;;;;;;;-7.78;74.18;96417.47;5029158;28;20030;-69
2024/01/31 06:29:08;;;;;;;41.55;17.80;;;;;;;-7.53;73.73;96431.28;5025515;28;20041;-76
2024/01/31 06:31:40;;;;;;;29.33;15.85;;;;;;;-7.33;72.84;96429.84;4994039;28;20041;-72
2024/01/31 06:34:06;;;;;;;32.05;15.52;;;;;;;-7.42;73.05;96423.00;5003063;28;20483;-70
2024/01/31 06:36:31;;;;;;;34.00;18.23;;;;;;;-7.45;72.61;96419.59;4993978;28;20033;-70
2024/01/31 06:38:58;;;;;;;27.50;14.70;;;;;;;-7.54;73.06;96409.38;5013252;28;20087;-71
2024/01/31 06:41:24;;;;;;;26.05;13.40;;;;;;;-7.42;72.98;96430.56;4994941;28;20038;-70
2024/01/31 06:43:49;;;;;;;22.80;13.38;;;;;;;-7.80;73.22;96386.31;5014084;28;20032;-72
2024/01/31 06:46:16;;;;;;;23.27;12.80;;;;;;;-7.67;73.74;96414.25;5023265;28;20026;-71
2024/01/31 06:48:41;;;;;;;25.85;12.98;;;;;;;-7.49;73.95;96430.50;4990634;28;20419;-71
2024/01/31 06:51:07;;;;;;;19.83;11.85;;;;;;;-7.38;73.55;96445.75;5015622;28;20038;-78
2024/01/31 06:53:33;;;;;;;22.95;13.50;;;;;;;-7.49;73.75;96443.97;5010653;28;20037;-71
2024/01/31 06:56:00;;;;;;;29.60;17.25;;;;;;;-7.60;73.94;96432.88;5029077;28;20030;-72
2024/01/31 06:58:25;;;;;;;34.47;18.98;;;;;;;-7.59;74.11;96441.28;4974130;28;20096;-72
2024/01/31 07:00:55;;;;;;;21.58;13.88;;;;;;;-7.48;74.67;96444.81;5009199;28;20038;-71
2024/01/31 07:03:20;;;;;;;19.40;12.13;;;;;;;-7.54;75.15;96438.00;5007279;28;20140;-72
2024/01/31 07:05:46;;;;;;;23.92;12.07;;;;;;;-7.53;75.31;96433.78;4987746;28;20567;-72
2024/01/31 07:08:11;;;;;;;17.38;10.10;;;;;;;-7.49;75.25;96433.03;5012929;28;20029;-71
2024/01/31 07:10:37;;;;;;;15.65;8.82;;;;;;;-7.52;75.58;96433.84;5026922;28;20025;-72
2024/01/31 07:13:02;;;;;;;13.02;7.43;;;;;;;-7.22;74.88;96429.97;5019297;28;20029;-72
2024/01/31 07:15:27;;;;;;;15.65;7.88;;;;;;;-7.23;74.12;96421.53;5027215;28;20056;-73
2024/01/31 07:17:53;;;;;;;20.48;12.65;;;;;;;-7.53;75.05;96418.66;5000401;28;20033;-72
2024/01/31 07:20:18;;;;;;;21.60;13.55;;;;;;;-7.31;74.97;96425.66;5026520;28;20030;-72
2024/01/31 07:22:44;;;;;;;19.20;11.95;;;;;;;-7.50;75.94;96403.53;5012449;28;20491;-73
2024/01/31 07:25:13;;;;;;;25.02;12.93;;;;;;;-7.26;75.90;96411.41;5010587;28;20045;-74
2024/01/31 07:27:40;;;;;;;20.70;14.63;;;;;;;-7.16;76.61;96414.03;4999857;28;20040;-73
2024/01/31 07:30:07;;;;;;;19.67;12.45;;;;;;;-7.12;76.47;96416.63;5021702;28;20029;-72
2024/01/31 07:32:33;;;;;;;18.52;11.93;;;;;;;-6.87;76.45;96416.91;4994778;28;20490;-73
2024/01/31 07:34:58;;;;;;;19.50;12.40;;;;;;;-6.30;75.20;96408.97;4998062;28;20050;-73
2024/01/31 07:37:24;;;;;;;19.33;12.32;;;;;;;-6.14;75.07;96404.88;4988724;28;20030;-72
2024/01/31 07:39:49;;;;;;;18.38;11.27;;;;;;;-5.51;73.62;96404.41;4974141;28;20034;-73
2024/01/31 07:42:15;;;;;;;17.83;11.43;;;;;;;-4.36;70.87;96419.94;4980143;28;20031;-74
2024/01/31 07:44:40;;;;;;;17.60;10.05;;;;;;;-3.42;67.61;96413.06;4987124;28;20034;-71
2024/01/31 07:47:06;;;;;;;21.40;11.90;;;;;;;-2.26;63.84;96417.56;4977703;28;20045;-73
2024/01/31 07:49:31;;;;;;;18.73;12.23;;;;;;;-0.36;58.87;96413.78;4990098;28;20041;-78
2024/01/31 07:51:57;;;;;;;19.70;12.80;;;;;;;0.96;54.09;96411.53;4963525;28;20564;-72
2024/01/31 07:54:22;;;;;;;22.60;12.77;;;;;;;1.87;50.91;96418.16;4988357;28;20026;-73
2024/01/31 07:56:48;;;;;;;15.43;11.32;;;;;;;2.86;47.96;96419.91;4982805;28;20042;-73
2024/01/31 07:59:13;;;;;;;18.92;12.68;;;;;;;4.33;45.63;96417.25;4988728;28;20030;-73
2024/01/31 08:01:39;;;;;;;16.90;11.98;;;;;;;4.38;44.23;96408.50;4980611;28;20030;-73
2024/01/31 08:04:04;;;;;;;20.20;13.68;;;;;;;5.02;42.90;96402.03;4988363;28;20085;-73
2024/01/31 08:06:30;;;;;;;18.70;13.45;;;;;;;5.81;41.38;96400.78;4989916;28;20065;-74
2024/01/31 08:08:55;;;;;;;19.52;13.93;;;;;;;5.15;41.10;96398.09;4991533;28;20050;-73
2024/01/31 08:11:20;;;;;;;19.65;13.30;;;;;;;2.70;46.10;96404.06;4989033;28;20057;-73
2024/01/31 08:13:46;;;;;;;20.02;13.27;;;;;;;2.63;47.23;96402.56;4989208;28;20081;-74
2024/01/31 08:16:12;;;;;;;23.30;14.15;;;;;;;2.34;48.36;96393.03;4983345;28;20432;-73
2024/01/31 08:18:38;;;;;;;21.48;15.40;;;;;;;1.16;50.57;96393.22;4982676;28;20037;-73
2024/01/31 08:21:03;;;;;;;24.55;16.08;;;;;;;-0.28;55.05;96377.06;4989086;28;20038;-75
2024/01/31 08:23:29;;;;;;;20.80;15.10;;;;;;;0.55;53.24;96383.31;4989985;28;20049;-74
2024/01/31 08:25:55;;;;;;;22.63;14.15;;;;;;;0.49;54.67;96392.81;4988633;28;20023;-74
2024/01/31 08:28:20;;;;;;;23.00;16.38;;;;;;;0.46;54.60;96388.59;4988159;28;20091;-75
2024/01/31 08:30:46;;;;;;;25.42;15.90;;;;;;;-0.10;55.49;96386.16;4990330;28;20038;-75
2024/01/31 08:33:11;;;;;;;24.40;16.10;;;;;;;-0.49;56.97;96379.94;4987870;28;20026;-75
2024/01/31 08:35:36;;;;;;;24.65;15.90;;;;;;;-1.04;58.98;96385.78;4970707;28;20398;-74
2024/01/31 08:38:02;;;;;;;23.60;15.45;;;;;;;-1.80;61.64;96367.94;4979222;28;20039;-75
2024/01/31 08:40:27;;;;;;;23.58;15.55;;;;;;;-1.16;60.23;96381.69;4970333;28;20035;-76
2024/01/31 08:42:58;;;;;;;24.50;14.77;;;;;;;-1.46;61.41;96386.28;4976866;28;20031;-74
2024/01/31 08:45:23;;;;;;;22.98;14.88;;;;;;;-1.45;61.67;96374.34;4978068;28;20459;-75
2024/01/31 08:47:49;;;;;;;23.25;14.43;;;;;;;-1.75;61.62;96337.31;4985132;28;20050;-75
2024/01/31 08:50:14;;;;;;;20.35;12.60;;;;;;;-1.57;62.65;96375.34;4989183;28;20106;-74
2024/01/31 08:52:40;;;;;;;22.05;13.30;;;;;;;-1.47;62.38;96363.34;4958905;28;20035;-74
2024/01/31 08:55:08;;;;;;;20.95;14.07;;;;;;;-1.90;64.01;96379.91;4977990;28;20023;-74
2024/01/31 08:57:34;;;;;;;20.75;13.43;;;;;;;-1.89;64.32;96368.03;4944257;28;20142;-74
2024/01/31 08:59:59;;;;;;;22.95;13.55;;;;;;;-1.68;64.02;96344.88;4986608;28;20046;-73
2024/01/31 09:02:24;;;;;;;23.20;14.70;;;;;;;-1.76;63.86;96336.47;4981878;28;20031;-73
2024/01/31 09:04:50;;;;;;;20.15;13.40;;;;;;;-1.74;64.83;96351.75;4986509;28;20394;-73
2024/01/31 09:07:15;;;;;;;22.05;14.30;;;;;;;-1.43;63.83;96348.00;4993240;28;20030;-73
2024/01/31 09:09:40;;;;;;;19.80;12.77;;;;;;;-1.58;64.46;96345.63;4976708;28;20034;-73
2024/01/31 09:12:06;;;;;;;17.85;12.43;;;;;;;-1.07;63.22;96350.97;4993226;28;20041;-73
2024/01/31 09:14:35;;;;;;;19.38;12.38;;;;;;;-1.23;63.33;96346.91;4992868;28;20038;-73
2024/01/31 09:17:00;;;;;;;16.02;11.57;;;;;;;-1.11;63.16;96346.78;4992993;28;20523;-73
2024/01/31 09:19:25;;;;;;;17.75;11.43;;;;;;;-1.54;62.02;96334.53;4972581;28;20039;-74
2024/01/31 09:21:51;;;;;;;16.50;11.10;;;;;;;-1.35;61.96;96341.09;4977881;28;20042;-74
2024/01/31 09:24:16;;;;;;;15.70;10.57;;;;;;;-1.13;61.51;96338.28;4975845;28;20050;-73
2024/01/31 09:26:42;;;;;;;15.55;10.55;;;;;;;-0.91;59.78;96334.59;4994049;28;20034;-74
2024/01/31 09:29:07;;;;;;;16.10;11.02;;;;;;;-0.89;59.11;96326.94;4975241;28;20046;-73
2024/01/31 09:31:32;;;;;;;17.35;11.65;;;;;;;-0.63;59.28;96318.88;4992697;28;20034;-73
2024/01/31 09:33:58;;;;;;;17.38;11.27;;;;;;;-0.72;59.48;96324.97;4996333;28;20476;-74
2024/01/31 09:36:23;;;;;;;15.93;10.93;;;;;;;-0.59;59.39;96305.19;5033110;28;20033;-73
2024/01/31 09:38:50;;;;;;;18.52;11.73;;;;;;;-0.59;58.55;96305.19;5012316;28;20033;-73
2024/01/31 09:41:16;;;;;;;19.20;11.57;;;;;;;-0.29;57.57;96303.03;5003544;28;20029;-74
2024/01/31 09:43:45;;;;;;;17.80;11.57;;;;;;;-0.49;57.93;96257.41;5015096;28;20116;-73
2024/01/31 09:46:11;;;;;;;17.98;11.52;;;;;;;0.02;56.55;96288.00;5015754;28;20037;-73
2024/01/31 09:48:36;;;;;;;21.05;12.35;;;;;;;0.21;56.07;96289.34;5032702;28;20037;-73
2024/01/31 09:51:02;;;;;;;21.58;13.18;;;;;;;0.03;56.50;96274.38;5014676;28;20099;-73
2024/01/31 09:53:29;;;;;;;20.67;13.27;;;;;;;0.03;56.84;96258.16;5006589;28;20049;-74
2024/01/31 09:55:57;;;;;;;20.10;12.85;;;;;;;-0.24;58.02;96258.66;4991910;28;20026;-73
2024/01/31 09:58:22;;;;;;;19.00;12.77;;;;;;;-0.26;58.43;96257.00;4996369;28;20095;-73
2024/01/31 10:00:50;;;;;;;21.40;13.77;;;;;;;0.33;56.54;96272.91;5008805;28;20033;-73
2024/01/31 10:03:15;;;;;;;21.50;12.82;;;;;;;0.04;57.16;96245.38;5014816;28;20037;-73
2024/01/31 10:05:41;;;;;;;17.58;11.88;;;;;;;0.06;57.52;96264.09;4994224;28;20420;-73
2024/01/31 10:08:06;;;;;;;16.35;11.25;;;;;;;0.34;56.60;96266.13;4996608;28;20030;-73
2024/01/31 10:10:32;;;;;;;17.85;11.40;;;;;;;0.67;55.19;96264.59;5022438;28;20116;-73
2024/01/31 10:12:57;;;;;;;23.48;11.65;;;;;;;0.55;54.02;96246.94;5023067;28;20034;-73
2024/01/31 10:15:22;;;;;;;17.50;11.73;;;;;;;0.60;54.81;96238.28;4996036;28;20423;-73
2024/01/31 10:17:48;;;;;;;17.23;12.10;;;;;;;0.27;55.85;96211.69;5031559;28;20038;-76
2024/01/31 10:20:13;;;;;;;19.27;11.45;;;;;;;0.29;56.31;96243.19;5025097;28;20022;-73
2024/01/31 10:22:39;;;;;;;19.17;12.07;;;;;;;0.37;56.12;96240.50;5006333;28;20111;-73
2024/01/31 10:25:05;;;;;;;17.85;12.02;;;;;;;0.50;55.36;96223.16;5013037;28;20060;-73
2024/01/31 10:27:35;;;;;;;17.63;12.32;;;;;;;0.54;55.76;96238.41;4998584;28;20033;-73
2024/01/31 10:30:07;;;;;;;18.67;11.52;;;;;;;0.77;55.01;96225.13;5032497;28;20029;-73
2024/01/31 10:32:33;;;;;;;18.40;11.32;;;;;;;1.02;55.34;96224.59;4998983;28;20033;-73
2024/01/31 10:34:59;;;;;;;17.17;11.18;;;;;;;1.17;54.40;96205.47;5014419;28;20567;-73
2024/01/31 10:37:26;;;;;;;14.60;10.90;;;;;;;1.49;51.65;96215.75;5014360;28;20084;-73
2024/01/31 10:39:51;;;;;;;21.65;11.68;;;;;;;1.28;52.93;96204.34;4998578;28;20033;-73
2024/01/31 10:42:17;;;;;;;21.08;11.90;;;;;;;1.49;51.89;96207.25;4997984;28;20034;-73
2024/01/31 10:44:42;;;;;;;16.02;10.68;;;;;;;1.59;50.83;96193.34;5014193;28;20029;-73
2024/01/31 10:47:08;;;;;;;15.82;11.48;;;;;;;1.60;50.01;96156.59;4998152;28;20033;-73
2024/01/31 10:49:33;;;;;;;18.05;12.38;;;;;;;1.65;51.42;96200.84;5031946;28;20033;-73
2024/01/31 10:51:59;;;;;;;18.42;11.98;;;;;;;1.52;52.42;96191.78;5031682;28;20026;-73
2024/01/31 10:54:26;;;;;;;17.52;12.18;;;;;;;1.33;51.77;96186.28;4997931;28;20116;-73
2024/01/31 10:56:52;;;;;;;17.83;12.10;;;;;;;1.43;52.04;96186.91;4997707;28;20106;-73
2024/01/31 10:59:17;;;;;;;18.67;12.23;;;;;;;1.38;51.78;96178.50;4981402;28;20112;-74
2024/01/31 11:02:12;;;;;;;17.02;12.52;;;;;;;1.38;52.39;96178.50;5013858;28;20056;-73
2024/01/31 11:04:39;;;;;;;21.10;12.88;;;;;;;1.43;51.39;96151.06;5026365;28;20099;-73
2024/01/31 11:07:04;;;;;;;19.27;12.10;;;;;;;1.73;51.55;96173.31;4985109;28;20087;-73
2024/01/31 11:09:29;;;;;;;18.65;12.20;;;;;;;2.15;49.66;96160.19;5030844;28;20041;-73
2024/01/31 11:12:01;;;;;;;18.33;12.40;;;;;;;2.13;50.21;96156.00;5012410;28;20419;-73
2024/01/31 11:14:29;;;;;;;;;;;;;;;2.22;49.87;96148.88;5032005;28;20037;-72
2024/01/31 11:17:07;;;;;;;16.17;11.98;;;;;;;1.97;49.83;96127.38;4997019;28;20403;-73
2024/01/31 11:19:59;;;;;;;17.40;11.30;;;;;;;2.61;47.62;96150.31;5014251;28;20046;-73